Aviation Digital Data Service (ADDS)

Output produced by METARs form (1741 UTC 21 September 2019)
found at http://aviationweather.gov/metar/data/
 
KGLS 211720Z 2118/2218 12012KT P6SM SCT025 
     FM220600 13014KT P6SM BKN100 
     FM221500 14011KT P6SM BKN050